Time;durP1;ratioP1;P1;durP2;ratioP2;P2;SDS_P1;SDS_P2;PMS_P1;PMS_P2;Temp;Humidity;BMP_temperature;BMP_pressure;BME280_temperature;BME280_humidity;BME280_pressure;Samples;Min_cycle;Max_cycle;Signal;HPM_P1;HPM_P2
2024/02/25 00:00:23;;;;;;;19.30;18.70;;;21.00;57.20;;;;;;5071033;28;20478;-70
2024/02/25 00:02:51;;;;;;;20.30;19.60;;;21.00;57.30;;;;;;5071618;28;20444;-67
2024/02/25 00:05:18;;;;;;;20.33;19.73;;;21.00;57.30;;;;;;5071435;28;20447;-67
2024/02/25 00:07:46;;;;;;;20.53;19.73;;;21.00;57.30;;;;;;5071545;28;20581;-66
2024/02/25 00:10:13;;;;;;;19.87;19.27;;;21.00;57.20;;;;;;5070983;28;20471;-66
2024/02/25 00:12:39;;;;;;;19.63;19.03;;;20.90;57.10;;;;;;5070102;28;20442;-66
2024/02/25 00:15:07;;;;;;;20.33;19.63;;;20.90;57.10;;;;;;5071338;28;20455;-69
2024/02/25 00:17:33;;;;;;;19.83;19.23;;;20.90;57.10;;;;;;5071415;28;20439;-67
2024/02/25 00:20:01;;;;;;;19.90;19.30;;;20.90;57.10;;;;;;5071117;28;20842;-67
2024/02/25 00:22:29;;;;;;;20.03;19.43;;;20.90;57.20;;;;;;5071690;28;20443;-69
2024/02/25 00:24:55;;;;;;;20.57;19.87;;;20.90;57.10;;;;;;5071514;28;21027;-66
2024/02/25 00:27:22;;;;;;;19.87;19.27;;;20.90;57.20;;;;;;5071574;28;20447;-68
2024/02/25 00:29:49;;;;;;;19.67;19.07;;;20.90;57.20;;;;;;5069656;28;20483;-67
2024/02/25 00:32:16;;;;;;;19.20;18.60;;;20.90;57.20;;;;;;5072659;28;20804;-67
2024/02/25 00:34:42;;;;;;;20.93;19.83;;;20.90;57.70;;;;;;5072174;28;20451;-67
2024/02/25 00:37:10;;;;;;;20.67;19.97;;;20.90;57.10;;;;;;5064212;28;20436;-66
2024/02/25 00:39:37;;;;;;;20.10;19.50;;;20.90;57.10;;;;;;5051556;28;20440;-66
2024/02/25 00:42:04;;;;;;;20.00;19.40;;;20.80;57.00;;;;;;5051198;28;20439;-66
2024/02/25 00:44:34;;;;;;;20.87;20.27;;;20.80;57.00;;;;;;5051652;28;20945;-66
2024/02/25 00:47:01;;;;;;;20.37;19.77;;;20.80;57.00;;;;;;5071769;28;20451;-68
2024/02/25 00:49:27;;;;;;;20.00;19.40;;;20.80;57.00;;;;;;5071333;28;20486;-68
2024/02/25 00:51:54;;;;;;;20.23;19.63;;;20.80;57.00;;;;;;5071632;28;20448;-67
2024/02/25 00:54:22;;;;;;;20.50;19.90;;;20.80;56.90;;;;;;5058029;28;20441;-67
2024/02/25 00:56:49;;;;;;;20.00;19.40;;;20.80;57.00;;;;;;5051158;28;20440;-66
2024/02/25 00:59:16;;;;;;;20.17;19.57;;;20.80;57.00;;;;;;5051562;28;20438;-67
2024/02/25 01:01:43;;;;;;;19.70;19.10;;;20.80;56.90;;;;;;5059651;28;20516;-68
2024/02/25 01:04:11;;;;;;;20.07;19.47;;;20.80;56.90;;;;;;5074681;28;20451;-67
2024/02/25 01:06:37;;;;;;;20.37;19.77;;;20.80;56.90;;;;;;5075772;28;20445;-68
2024/02/25 01:09:07;;;;;;;20.27;19.67;;;20.80;56.90;;;;;;5075086;28;20856;-68
2024/02/25 01:11:36;;;;;;;28.70;27.80;;;20.80;56.90;;;;;;5074889;28;20455;-68
2024/02/25 01:14:03;;;;;;;27.87;26.93;;;20.80;57.00;;;;;;5074155;28;20447;-68
2024/02/25 01:16:29;;;;;;;26.93;26.03;;;20.80;56.90;;;;;;5074390;28;20449;-68
2024/02/25 01:18:56;;;;;;;20.10;19.50;;;20.80;56.90;;;;;;5065710;28;20442;-68
2024/02/25 01:21:23;;;;;;;19.80;19.20;;;20.80;56.90;;;;;;5054787;28;20472;-68
2024/02/25 01:23:50;;;;;;;20.50;19.90;;;20.80;56.90;;;;;;5071759;28;20443;-68
2024/02/25 01:26:17;;;;;;;19.93;19.33;;;20.80;57.00;;;;;;5074829;28;20443;-68
2024/02/25 01:28:46;;;;;;;20.30;19.70;;;20.70;56.90;;;;;;5074716;28;20522;-68
2024/02/25 01:31:13;;;;;;;20.00;19.40;;;20.70;56.90;;;;;;5072501;28;20468;-68
2024/02/25 01:33:39;;;;;;;20.20;19.60;;;20.80;57.00;;;;;;5055069;28;20785;-68
2024/02/25 01:36:07;;;;;;;20.10;19.50;;;20.70;56.90;;;;;;5059426;28;20444;-68
2024/02/25 01:38:34;;;;;;;19.50;18.90;;;20.70;56.90;;;;;;5060960;28;20448;-68
2024/02/25 01:41:00;;;;;;;20.43;19.83;;;20.70;56.90;;;;;;5054262;28;20464;-68
2024/02/25 01:43:27;;;;;;;19.67;19.07;;;20.70;56.90;;;;;;5053861;28;20813;-68
2024/02/25 01:45:55;;;;;;;20.40;19.80;;;20.70;56.90;;;;;;5061305;28;20522;-68
2024/02/25 01:48:22;;;;;;;20.93;20.23;;;20.70;56.80;;;;;;5073359;28;20490;-68
2024/02/25 01:50:51;;;;;;;20.50;19.90;;;20.70;56.80;;;;;;5073271;28;20832;-68
2024/02/25 01:53:18;;;;;;;20.23;19.63;;;20.70;56.90;;;;;;5073168;28;20443;-68
2024/02/25 01:55:50;;;;;;;20.10;19.50;;;20.70;57.00;;;;;;5053554;28;20444;-68
2024/02/25 01:58:18;;;;;;;20.00;19.40;;;20.70;57.00;;;;;;5053611;28;20539;-68
2024/02/25 02:00:45;;;;;;;27.57;26.77;;;20.70;56.90;;;;;;5068600;28;20455;-68
2024/02/25 02:03:13;;;;;;;26.20;25.40;;;20.70;56.90;;;;;;5073329;28;20447;-68
2024/02/25 02:05:40;;;;;;;25.83;24.93;;;20.70;56.90;;;;;;5073222;28;20469;-67
2024/02/25 02:08:07;;;;;;;26.10;25.30;;;20.70;56.90;;;;;;5073194;28;20448;-68
2024/02/25 02:10:34;;;;;;;27.47;26.57;;;20.60;56.80;;;;;;5072726;28;20524;-68
2024/02/25 02:13:01;;;;;;;26.00;25.20;;;20.60;56.80;;;;;;5071048;28;20435;-68
2024/02/25 02:15:28;;;;;;;27.43;26.63;;;20.60;56.80;;;;;;5053027;28;21005;-68
2024/02/25 02:17:55;;;;;;;26.20;25.40;;;20.60;56.80;;;;;;5053110;28;20921;-68
2024/02/25 02:20:23;;;;;;;26.37;25.57;;;20.60;56.70;;;;;;5052565;28;20463;-68
2024/02/25 02:22:52;;;;;;;27.60;26.80;;;20.60;56.70;;;;;;5052887;28;20440;-68
2024/02/25 02:25:18;;;;;;;30.40;29.40;;;20.70;56.80;;;;;;5052868;28;20440;-68
2024/02/25 02:27:45;;;;;;;27.10;26.30;;;20.70;56.80;;;;;;5061238;28;20446;-68
2024/02/25 02:30:13;;;;;;;26.20;25.40;;;20.70;56.80;;;;;;5072366;28;20483;-68
2024/02/25 02:32:40;;;;;;;19.63;19.03;;;20.60;56.70;;;;;;5072798;28;20446;-68
2024/02/25 02:35:08;;;;;;;20.07;19.47;;;20.60;56.70;;;;;;5072726;28;20446;-68
2024/02/25 02:37:34;;;;;;;19.60;19.00;;;20.60;56.70;;;;;;5072620;28;20450;-68
2024/02/25 02:40:04;;;;;;;20.10;19.50;;;20.60;56.70;;;;;;5072248;28;20466;-67
2024/02/25 02:42:32;;;;;;;20.23;19.63;;;20.60;56.70;;;;;;5056962;28;20444;-66
2024/02/25 02:45:00;;;;;;;21.20;20.60;;;20.60;56.70;;;;;;5053761;28;20934;-69
2024/02/25 02:47:28;;;;;;;20.03;19.43;;;20.60;56.70;;;;;;5052713;28;21007;-69
2024/02/25 02:49:55;;;;;;;19.90;19.30;;;20.60;56.70;;;;;;5051958;28;20561;-69
2024/02/25 02:52:22;;;;;;;19.90;19.30;;;20.60;56.60;;;;;;5052251;28;20444;-69
2024/02/25 02:54:48;;;;;;;20.00;19.40;;;20.60;56.70;;;;;;5054118;28;20448;-68
2024/02/25 02:57:16;;;;;;;19.93;19.33;;;20.60;56.60;;;;;;5072502;28;20530;-69
2024/02/25 02:59:43;;;;;;;20.40;19.80;;;20.60;56.60;;;;;;5071748;28;20431;-69
2024/02/25 03:02:10;;;;;;;20.90;20.30;;;20.60;56.70;;;;;;5072106;28;20440;-68
2024/02/25 03:04:37;;;;;;;21.23;20.63;;;20.60;56.70;;;;;;5057850;28;20432;-69
2024/02/25 03:07:04;;;;;;;20.60;20.00;;;20.60;56.60;;;;;;5052249;28;20444;-68
2024/02/25 03:09:31;;;;;;;20.10;19.50;;;20.60;56.60;;;;;;5051511;28;20480;-68
2024/02/25 03:11:58;;;;;;;20.77;20.07;;;20.60;56.60;;;;;;5051896;28;20455;-68
2024/02/25 03:14:26;;;;;;;20.50;19.80;;;20.60;56.60;;;;;;5053255;28;20428;-69
2024/02/25 03:16:53;;;;;;;20.90;20.30;;;20.60;56.50;;;;;;5060707;28;20432;-68
2024/02/25 03:19:19;;;;;;;21.30;20.70;;;20.50;56.50;;;;;;5087757;28;20458;-69
2024/02/25 03:21:46;;;;;;;21.17;20.57;;;20.50;56.50;;;;;;5071882;28;20532;-68
2024/02/25 03:24:13;;;;;;;20.13;19.53;;;20.50;56.50;;;;;;5071777;28;20489;-68
2024/02/25 03:26:40;;;;;;;20.90;20.20;;;20.50;56.50;;;;;;5071259;28;20450;-69
2024/02/25 03:29:07;;;;;;;20.83;20.23;;;20.60;56.50;;;;;;5071643;28;20850;-69
2024/02/25 03:31:35;;;;;;;20.87;20.27;;;20.50;56.40;;;;;;5064330;28;20456;-69
2024/02/25 03:34:03;;;;;;;20.63;20.03;;;20.60;56.50;;;;;;5051801;28;20435;-69
2024/02/25 03:36:30;;;;;;;21.27;20.67;;;20.50;56.40;;;;;;5051694;28;20436;-69
2024/02/25 03:38:56;;;;;;;21.17;20.50;;;20.50;56.50;;;;;;5051531;28;20436;-69
2024/02/25 03:41:23;;;;;;;20.80;20.20;;;20.50;56.50;;;;;;5051133;28;20471;-69
2024/02/25 03:43:50;;;;;;;20.27;19.67;;;20.50;56.50;;;;;;5051786;28;20440;-69
2024/02/25 03:46:17;;;;;;;21.47;20.77;;;20.50;56.50;;;;;;5064605;28;20443;-69
2024/02/25 03:48:45;;;;;;;20.20;19.60;;;20.50;56.50;;;;;;5071246;28;20451;-69
2024/02/25 03:51:11;;;;;;;21.20;20.50;;;20.50;56.50;;;;;;5071166;28;20463;-69
2024/02/25 03:53:38;;;;;;;20.20;19.60;;;20.50;56.50;;;;;;5071486;28;20448;-68
2024/02/25 03:56:06;;;;;;;20.90;20.20;;;20.50;56.50;;;;;;5071730;28;20436;-69
2024/02/25 03:58:32;;;;;;;19.87;19.27;;;20.50;56.60;;;;;;5071604;28;20438;-68
2024/02/25 04:00:59;;;;;;;19.90;19.30;;;20.50;56.60;;;;;;5071146;28;20459;-69
2024/02/25 04:03:26;;;;;;;21.43;20.83;;;20.50;56.50;;;;;;5071621;28;20950;-68
2024/02/25 04:05:54;;;;;;;20.67;20.07;;;20.50;56.50;;;;;;5071939;28;20451;-69
2024/02/25 04:08:21;;;;;;;21.37;20.77;;;20.50;56.50;;;;;;5072479;28;20436;-68
2024/02/25 04:10:48;;;;;;;22.70;22.00;;;20.50;56.40;;;;;;5072460;28;20486;-68
2024/02/25 04:13:15;;;;;;;21.17;20.57;;;20.50;56.40;;;;;;5067094;28;21005;-69
2024/02/25 04:15:42;;;;;;;21.67;20.97;;;20.50;56.40;;;;;;5053528;28;21009;-69
2024/02/25 04:18:08;;;;;;;21.80;21.10;;;20.50;56.40;;;;;;5052911;28;20448;-68
2024/02/25 04:20:35;;;;;;;21.10;20.50;;;20.50;56.40;;;;;;5053746;28;20972;-70
2024/02/25 04:23:03;;;;;;;20.73;20.13;;;20.50;56.40;;;;;;5054207;28;20451;-70
2024/02/25 04:25:30;;;;;;;20.40;19.80;;;20.50;56.50;;;;;;5055037;28;20448;-70
2024/02/25 04:27:57;;;;;;;20.10;19.50;;;20.40;56.30;;;;;;5066999;28;20450;-68
2024/02/25 04:30:24;;;;;;;20.10;19.50;;;20.50;56.30;;;;;;5074474;28;20533;-70
2024/02/25 04:32:50;;;;;;;20.60;20.00;;;20.50;56.30;;;;;;5075474;28;20440;-70
2024/02/25 04:35:17;;;;;;;20.60;20.00;;;20.50;56.40;;;;;;5076175;28;20444;-69
2024/02/25 04:37:44;;;;;;;20.80;20.20;;;20.50;56.40;;;;;;5077288;28;20497;-70
2024/02/25 04:40:13;;;;;;;20.60;20.00;;;20.50;56.40;;;;;;5096449;28;20471;-67
2024/02/25 04:42:39;;;;;;;20.00;19.40;;;20.40;56.30;;;;;;5064385;28;20505;-70
2024/02/25 04:45:08;;;;;;;21.03;20.33;;;20.50;56.30;;;;;;5055728;28;20447;-70
2024/02/25 04:47:35;;;;;;;20.10;19.50;;;20.50;56.40;;;;;;5055672;28;20455;-70
2024/02/25 04:50:03;;;;;;;20.20;19.60;;;20.40;56.40;;;;;;5054795;28;20491;-70
2024/02/25 04:52:30;;;;;;;20.43;19.83;;;20.40;56.40;;;;;;5055608;28;20921;-69
2024/02/25 04:54:57;;;;;;;21.70;21.10;;;20.40;56.40;;;;;;5060459;28;20440;-70
2024/02/25 04:57:25;;;;;;;21.50;20.90;;;20.50;56.40;;;;;;5065403;28;20448;-68
2024/02/25 04:59:51;;;;;;;20.87;20.27;;;20.40;56.30;;;;;;5055161;28;20463;-69
2024/02/25 05:02:18;;;;;;;32.27;31.27;;;20.50;56.40;;;;;;5055751;28;20515;-69
2024/02/25 05:04:45;;;;;;;21.27;20.67;;;20.40;56.30;;;;;;5055472;28;20494;-70
2024/02/25 05:07:12;;;;;;;21.27;20.60;;;20.40;56.30;;;;;;5055189;28;20444;-69
2024/02/25 05:09:38;;;;;;;22.87;22.17;;;20.50;56.40;;;;;;5067406;28;20574;-70
2024/02/25 05:12:06;;;;;;;22.37;21.67;;;20.50;56.40;;;;;;5059165;28;20441;-70
2024/02/25 05:14:34;;;;;;;21.70;21.10;;;20.50;56.40;;;;;;5055473;28;20440;-70
2024/02/25 05:17:01;;;;;;;22.00;21.30;;;20.40;56.40;;;;;;5054907;28;20456;-69
2024/02/25 05:19:30;;;;;;;22.30;21.60;;;20.40;56.40;;;;;;5054237;28;20820;-67
2024/02/25 05:21:57;;;;;;;21.80;21.20;;;20.40;56.40;;;;;;5054990;28;20451;-70
2024/02/25 05:24:24;;;;;;;22.50;21.67;;;20.40;56.40;;;;;;5073418;28;20837;-68
2024/02/25 05:26:51;;;;;;;21.50;20.80;;;20.40;56.40;;;;;;5075495;28;20454;-68
2024/02/25 05:29:18;;;;;;;21.90;21.30;;;20.50;56.50;;;;;;5074884;28;20450;-68
2024/02/25 05:31:46;;;;;;;20.97;20.37;;;20.50;56.50;;;;;;5074935;28;20470;-68
2024/02/25 05:34:13;;;;;;;21.40;20.80;;;20.50;56.50;;;;;;5073922;28;20443;-68
2024/02/25 05:36:39;;;;;;;20.60;20.00;;;20.50;56.50;;;;;;5069183;28;20824;-68
2024/02/25 05:39:08;;;;;;;21.13;20.53;;;20.50;56.50;;;;;;5055796;28;20447;-68
2024/02/25 05:41:35;;;;;;;21.47;20.87;;;20.50;56.50;;;;;;5054718;28;20467;-68
2024/02/25 05:44:01;;;;;;;21.50;20.90;;;20.50;56.40;;;;;;5054493;28;20475;-68
2024/02/25 05:46:28;;;;;;;21.63;20.93;;;20.50;56.40;;;;;;5053486;28;20448;-68
2024/02/25 05:48:56;;;;;;;22.43;21.73;;;20.50;56.40;;;;;;5053038;28;20455;-68
2024/02/25 05:51:23;;;;;;;20.50;19.90;;;20.50;56.40;;;;;;5063017;28;20486;-68
2024/02/25 05:53:50;;;;;;;28.20;27.40;;;20.50;56.40;;;;;;5075066;28;20996;-68
2024/02/25 05:56:17;;;;;;;29.20;28.30;;;20.50;56.40;;;;;;5075089;28;20450;-68
2024/02/25 05:58:43;;;;;;;22.47;21.77;;;20.50;56.40;;;;;;5074300;28;20449;-68
2024/02/25 06:01:10;;;;;;;22.30;21.70;;;20.50;56.40;;;;;;5077422;28;20819;-68
2024/02/25 06:03:37;;;;;;;23.73;23.03;;;20.50;56.30;;;;;;5080237;28;20445;-69
2024/02/25 06:06:05;;;;;;;24.77;23.97;;;20.50;56.30;;;;;;5057129;28;20436;-68
2024/02/25 06:08:32;;;;;;;22.60;21.90;;;20.50;56.30;;;;;;5053446;28;20805;-68
2024/02/25 06:10:58;;;;;;;21.90;21.30;;;20.50;56.40;;;;;;5052765;28;20495;-68
2024/02/25 06:13:25;;;;;;;23.73;23.03;;;20.50;56.40;;;;;;5053231;28;20448;-68
2024/02/25 06:15:52;;;;;;;23.43;22.73;;;20.50;56.30;;;;;;5053035;28;20444;-68
2024/02/25 06:18:20;;;;;;;20.83;20.23;;;20.50;56.30;;;;;;5055227;28;20447;-68
2024/02/25 06:20:47;;;;;;;21.90;21.20;;;20.50;56.20;;;;;;5072740;28;20554;-68
2024/02/25 06:23:15;;;;;;;21.13;20.43;;;20.50;56.30;;;;;;5072883;28;20443;-68
2024/02/25 06:25:42;;;;;;;22.50;21.80;;;20.50;56.30;;;;;;5073011;28;20446;-68
2024/02/25 06:28:09;;;;;;;22.10;21.50;;;20.50;56.40;;;;;;5058187;28;20813;-68
2024/02/25 06:30:36;;;;;;;21.27;20.67;;;20.50;56.50;;;;;;5052282;28;20511;-68
2024/02/25 06:33:02;;;;;;;21.97;21.30;;;20.50;56.50;;;;;;5061355;28;20444;-68
2024/02/25 06:35:29;;;;;;;22.70;22.00;;;20.50;56.60;;;;;;5072880;28;20944;-68
2024/02/25 06:37:58;;;;;;;21.80;21.20;;;20.50;56.60;;;;;;5072879;28;20451;-68
2024/02/25 06:40:27;;;;;;;22.63;21.93;;;20.50;56.60;;;;;;5072287;28;20470;-68
2024/02/25 06:42:53;;;;;;;22.80;22.10;;;20.50;56.60;;;;;;5072658;28;20454;-68
2024/02/25 06:45:20;;;;;;;22.50;21.70;;;20.50;56.70;;;;;;5072701;28;20450;-68
2024/02/25 06:47:47;;;;;;;22.10;21.40;;;20.50;56.70;;;;;;5056563;28;20523;-68
2024/02/25 06:50:14;;;;;;;22.00;21.20;;;20.50;56.70;;;;;;5052019;28;20488;-68
2024/02/25 06:52:41;;;;;;;22.50;21.80;;;20.50;56.80;;;;;;5052597;28;20451;-68
2024/02/25 06:55:08;;;;;;;21.80;21.20;;;20.50;56.80;;;;;;5052857;28;20448;-68
2024/02/25 06:57:36;;;;;;;21.17;20.47;;;20.50;56.80;;;;;;5053258;28;20498;-68
2024/02/25 07:00:07;;;;;;;23.80;23.10;;;20.50;56.80;;;;;;5053607;28;20460;-68
2024/02/25 07:02:34;;;;;;;21.13;20.53;;;20.50;56.70;;;;;;5072934;28;20443;-68
2024/02/25 07:05:00;;;;;;;21.00;20.40;;;20.50;56.80;;;;;;5072356;28;20466;-68
2024/02/25 07:07:27;;;;;;;21.20;20.60;;;20.50;56.70;;;;;;5067331;23;20831;-64
2024/02/25 07:09:57;;;;;;;23.00;22.30;;;20.50;56.70;;;;;;4980044;28;20444;-65
2024/02/25 07:12:23;;;;;;;22.63;21.90;;;20.50;56.80;;;;;;4973387;28;20507;-64
2024/02/25 07:14:52;;;;;;;22.20;21.50;;;20.50;56.70;;;;;;4973168;28;20944;-64
2024/02/25 07:17:19;;;;;;;20.90;20.30;;;20.50;56.70;;;;;;4978576;28;20497;-64
2024/02/25 07:19:46;;;;;;;21.40;20.70;;;20.50;56.80;;;;;;4972776;28;20452;-64
2024/02/25 07:22:13;;;;;;;22.73;21.93;;;20.50;56.80;;;;;;4973124;28;20440;-64
2024/02/25 07:24:40;;;;;;;21.83;20.97;;;20.50;57.00;;;;;;4973103;28;20474;-66
2024/02/25 07:27:08;;;;;;;21.60;20.80;;;20.50;57.10;;;;;;4972868;28;20483;-64
2024/02/25 07:29:35;;;;;;;21.20;20.60;;;20.50;57.10;;;;;;4972604;28;20995;-64
2024/02/25 07:32:03;;;;;;;22.10;21.40;;;20.50;57.10;;;;;;4972918;28;20491;-64
2024/02/25 07:34:29;;;;;;;22.30;21.60;;;20.50;57.20;;;;;;4976581;28;20444;-64
2024/02/25 07:36:56;;;;;;;21.93;21.20;;;20.50;57.20;;;;;;4972939;28;20451;-69
2024/02/25 07:39:23;;;;;;;20.83;20.23;;;20.50;57.40;;;;;;4972095;28;20469;-67
2024/02/25 07:41:50;;;;;;;22.70;21.90;;;20.50;58.20;;;;;;4973186;28;20450;-64
2024/02/25 07:44:16;;;;;;;22.40;21.60;;;20.50;58.00;;;;;;4972443;28;20533;-69
2024/02/25 07:46:43;;;;;;;21.50;20.80;;;20.50;58.40;;;;;;4972924;28;20451;-68
2024/02/25 07:49:11;;;;;;;22.10;21.40;;;20.50;58.20;;;;;;4972655;28;20476;-67
2024/02/25 07:51:38;;;;;;;22.30;21.60;;;20.60;58.30;;;;;;4977471;28;20484;-67
2024/02/25 07:54:05;;;;;;;21.83;21.13;;;20.60;58.20;;;;;;4972694;28;20450;-66
2024/02/25 07:56:31;;;;;;;20.70;20.00;;;20.60;58.20;;;;;;4972548;28;20454;-68
2024/02/25 07:58:58;;;;;;;21.20;20.60;;;20.60;58.20;;;;;;4972612;28;20466;-67
2024/02/25 08:01:25;;;;;;;22.00;21.37;;;20.60;58.10;;;;;;4972178;28;20440;-68
2024/02/25 08:03:52;;;;;;;22.23;21.53;;;20.60;58.10;;;;;;4972531;28;20440;-66
2024/02/25 08:06:27;;;;;;;21.70;21.00;;;20.70;58.10;;;;;;4973841;28;20440;-70
2024/02/25 08:08:53;;;;;;;21.83;21.13;;;20.70;58.00;;;;;;4975885;28;20982;-67
2024/02/25 08:11:20;;;;;;;23.23;22.23;;;20.70;58.00;;;;;;4972456;28;20487;-66
2024/02/25 08:13:47;;;;;;;22.30;21.60;;;20.70;58.20;;;;;;4976382;28;20455;-66
2024/02/25 08:16:14;;;;;;;22.67;21.97;;;20.80;58.10;;;;;;4976492;28;20447;-69
2024/02/25 08:18:44;;;;;;;23.20;22.40;;;20.80;57.90;;;;;;4976299;28;20463;-67
2024/02/25 08:21:12;;;;;;;22.50;21.80;;;20.80;57.90;;;;;;4975930;28;21085;-66
2024/02/25 08:23:40;;;;;;;23.10;22.40;;;20.80;57.60;;;;;;4977430;28;20451;-71
2024/02/25 08:26:07;;;;;;;22.37;21.57;;;20.90;57.80;;;;;;4980621;28;20447;-70
2024/02/25 08:28:34;;;;;;;23.30;22.30;;;20.90;57.80;;;;;;4968291;28;20471;-65
2024/02/25 08:31:01;;;;;;;22.20;21.50;;;20.90;57.80;;;;;;4975680;28;20490;-67
2024/02/25 08:33:28;;;;;;;22.10;21.40;;;21.00;57.80;;;;;;4976056;28;20450;-67
2024/02/25 08:35:55;;;;;;;22.23;21.47;;;20.90;57.70;;;;;;4975932;28;20447;-67
2024/02/25 08:38:21;;;;;;;22.07;21.37;;;21.00;57.70;;;;;;4975706;28;20471;-68
2024/02/25 08:40:50;;;;;;;22.60;21.90;;;21.00;57.70;;;;;;4980694;28;20444;-69
2024/02/25 08:43:16;;;;;;;21.83;21.13;;;21.00;57.70;;;;;;4976291;28;20448;-66
2024/02/25 08:45:43;;;;;;;23.20;22.40;;;21.00;57.70;;;;;;4975974;28;20972;-67
2024/02/25 08:48:10;;;;;;;22.63;21.93;;;21.10;57.70;;;;;;4975631;28;20476;-68
2024/02/25 08:50:37;;;;;;;23.43;22.73;;;21.00;57.70;;;;;;4975379;28;20502;-67
2024/02/25 08:53:04;;;;;;;22.90;22.17;;;21.10;57.50;;;;;;4976504;28;20442;-69
2024/02/25 08:55:31;;;;;;;19.88;19.17;;;21.10;57.50;;;;;;4975110;28;20987;-67
2024/02/25 08:57:59;;;;;;;24.93;24.03;;;21.10;57.50;;;;;;4975545;28;20600;-67
2024/02/25 09:00:25;;;;;;;23.37;22.57;;;21.20;57.40;;;;;;4975123;28;20451;-69
2024/02/25 09:02:54;;;;;;;23.20;22.30;;;21.30;57.40;;;;;;4975916;28;20451;-65
2024/02/25 09:05:21;;;;;;;22.83;22.10;;;21.30;57.30;;;;;;4975594;28;20875;-66
2024/02/25 09:07:48;;;;;;;24.03;23.00;;;21.30;57.30;;;;;;4975459;28;20467;-67
2024/02/25 09:10:18;;;;;;;22.00;21.30;;;21.30;57.30;;;;;;4980425;28;20467;-67
2024/02/25 09:12:47;;;;;;;21.30;20.70;;;21.30;57.30;;;;;;4975476;28;20586;-67
2024/02/25 09:15:16;;;;;;;22.93;22.23;;;21.30;57.30;;;;;;4976231;28;20447;-67
2024/02/25 09:17:43;;;;;;;22.80;22.10;;;21.30;57.10;;;;;;4975472;28;20463;-67
2024/02/25 09:20:11;;;;;;;23.70;22.90;;;21.30;57.10;;;;;;4975363;28;20447;-66
2024/02/25 09:22:38;;;;;;;18.23;17.63;;;21.30;57.20;;;;;;4966703;28;20449;-65
2024/02/25 09:25:05;;;;;;;19.73;19.03;;;21.30;57.20;;;;;;4974526;28;20443;-62
2024/02/25 09:27:32;;;;;;;21.40;20.70;;;21.40;57.10;;;;;;4974967;28;20503;-68
2024/02/25 09:29:58;;;;;;;20.40;19.70;;;21.40;57.30;;;;;;4974768;28;20443;-69
2024/02/25 09:32:29;;;;;;;20.20;19.50;;;21.40;57.00;;;;;;4983882;28;21037;-67
2024/02/25 09:34:56;;;;;;;20.13;19.50;;;21.40;56.80;;;;;;4976031;28;20444;-68
2024/02/25 09:37:23;;;;;;;20.87;20.17;;;21.50;57.00;;;;;;4976751;28;20467;-67
2024/02/25 09:39:49;;;;;;;20.70;19.70;;;21.40;56.80;;;;;;4974678;28;20812;-68
2024/02/25 09:42:19;;;;;;;19.20;18.70;;;21.40;56.70;;;;;;4974719;28;20440;-67
2024/02/25 09:44:46;;;;;;;19.90;19.30;;;21.40;56.60;;;;;;4975069;28;20448;-69
2024/02/25 09:47:14;;;;;;;21.33;20.27;;;21.50;56.70;;;;;;4974636;28;20471;-65
2024/02/25 09:49:43;;;;;;;20.30;19.70;;;21.50;57.00;;;;;;4975340;28;20921;-66
2024/02/25 09:52:14;;;;;;;20.40;19.80;;;21.40;56.80;;;;;;4974715;28;20490;-68
2024/02/25 09:54:41;;;;;;;21.63;20.90;;;21.50;57.50;;;;;;4967113;28;20476;-68
2024/02/25 09:57:09;;;;;;;20.30;19.70;;;21.50;56.90;;;;;;4974862;28;20871;-67
2024/02/25 09:59:35;;;;;;;17.30;16.80;;;21.50;56.90;;;;;;4974040;28;20444;-66
2024/02/25 10:02:02;;;;;;;17.40;16.90;;;21.50;57.20;;;;;;4977030;28;20444;-68
2024/02/25 10:04:29;;;;;;;18.63;17.87;;;21.60;57.00;;;;;;4975585;28;20462;-69
2024/02/25 10:06:57;;;;;;;17.90;17.40;;;21.60;57.00;;;;;;4974383;28;20451;-69
2024/02/25 10:09:31;;;;;;;18.20;17.63;;;21.60;57.00;;;;;;4973980;28;20867;-71
2024/02/25 10:11:58;;;;;;;19.30;18.50;;;21.60;57.10;;;;;;4974404;28;20479;-69
2024/02/25 10:14:25;;;;;;;18.57;17.97;;;21.60;56.90;;;;;;4974268;28;20436;-70
2024/02/25 10:17:01;;;;;;;18.10;17.50;;;21.60;56.90;;;;;;4974405;28;20868;-69
2024/02/25 10:19:28;;;;;;;17.30;16.80;;;21.70;57.60;;;;;;4973428;28;20439;-71
2024/02/25 10:22:06;;;;;;;17.17;16.67;;;21.70;56.80;;;;;;4974252;28;20444;-70
2024/02/25 10:24:33;;;;;;;18.10;17.50;;;21.70;56.90;;;;;;4974093;28;20443;-68
2024/02/25 10:27:08;;;;;;;17.60;17.10;;;21.70;56.40;;;;;;4974185;28;20451;-71
2024/02/25 10:29:51;;;;;;;17.93;17.23;;;21.70;56.20;;;;;;4973570;28;20471;-68
2024/02/25 10:32:22;;;;;;;17.80;17.20;;;21.70;56.60;;;;;;4973780;28;20654;-69
2024/02/25 10:34:50;;;;;;;18.33;17.70;;;21.70;56.90;;;;;;4975145;28;20472;-64
2024/02/25 10:37:20;;;;;;;18.80;18.30;;;21.70;57.10;;;;;;4973666;28;20467;-65
2024/02/25 10:39:47;;;;;;;17.60;17.10;;;21.70;57.00;;;;;;4973748;28;20448;-65
2024/02/25 10:42:15;;;;;;;17.80;17.30;;;21.70;57.10;;;;;;4973853;28;20432;-65
2024/02/25 10:44:42;;;;;;;18.83;18.20;;;21.70;57.40;;;;;;4965879;28;20502;-67
2024/02/25 10:47:15;;;;;;;17.57;17.07;;;21.70;57.70;;;;;;4974144;28;20460;-68
2024/02/25 10:49:43;;;;;;;22.27;21.23;;;21.80;58.30;;;;;;4965857;28;20440;-67
2024/02/25 10:52:12;;;;;;;19.33;18.63;;;21.80;58.70;;;;;;4974085;28;20507;-65
2024/02/25 10:54:41;;;;;;;21.53;20.53;;;21.80;59.50;;;;;;4973443;28;20817;-69
2024/02/25 10:57:10;;;;;;;18.97;18.27;;;21.80;60.10;;;;;;4973194;28;20467;-70
2024/02/25 10:59:39;;;;;;;22.00;21.10;;;21.80;60.10;;;;;;4974438;28;20491;-68
2024/02/25 11:02:08;;;;;;;22.47;21.47;;;21.80;60.10;;;;;;4978078;28;20467;-67
2024/02/25 11:04:35;;;;;;;23.23;22.03;;;21.80;60.10;;;;;;4973509;28;20961;-67
2024/02/25 11:07:04;;;;;;;24.03;23.13;;;21.80;59.70;;;;;;4988121;28;20454;-68
2024/02/25 11:09:33;;;;;;;23.07;22.27;;;21.80;59.80;;;;;;4993014;28;20443;-68
2024/02/25 11:12:20;;;;;;;22.93;22.13;;;21.80;59.80;;;;;;4992797;28;20521;-69
2024/02/25 11:14:51;;;;;;;18.80;18.20;;;21.80;59.60;;;;;;4982736;28;20440;-71
2024/02/25 11:17:20;;;;;;;20.03;18.73;;;21.80;59.70;;;;;;4973035;28;20495;-71
2024/02/25 11:20:03;;;;;;;18.67;17.97;;;21.80;59.60;;;;;;4972698;28;20479;-69
2024/02/25 11:22:42;;;;;;;23.00;22.20;;;21.70;59.40;;;;;;4973457;28;20442;-71
2024/02/25 11:25:40;;;;;;;23.70;22.70;;;21.70;59.10;;;;;;4972606;28;20542;-68
2024/02/25 11:28:14;;;;;;;23.03;22.10;;;21.70;59.10;;;;;;4972392;28;20520;-66
2024/02/25 11:30:43;;;;;;;21.63;20.93;;;21.70;59.00;;;;;;4972695;28;20908;-68
2024/02/25 11:33:41;;;;;;;20.87;19.97;;;21.70;59.10;;;;;;4972936;28;20931;-67
2024/02/25 11:36:11;;;;;;;22.40;21.50;;;21.70;59.10;;;;;;4973270;28;20506;-66
2024/02/25 11:38:41;;;;;;;20.17;19.27;;;21.70;58.90;;;;;;4973384;28;20525;-65
2024/02/25 11:41:10;;;;;;;20.60;19.90;;;21.70;59.40;;;;;;4972727;28;20231;-70
2024/02/25 11:43:39;;;;;;;21.53;20.73;;;21.80;58.60;;;;;;4973185;28;20444;-69
2024/02/25 11:46:08;;;;;;;21.60;20.80;;;21.80;58.50;;;;;;4972840;28;20539;-68
2024/02/25 11:48:35;;;;;;;21.97;21.17;;;21.80;58.20;;;;;;4972863;28;20832;-68
2024/02/25 11:51:03;;;;;;;21.80;21.00;;;21.80;58.00;;;;;;4972648;28;20448;-68
2024/02/25 11:53:30;;;;;;;21.70;20.80;;;21.80;58.10;;;;;;4973038;28;20519;-68
2024/02/25 11:55:57;;;;;;;22.67;21.30;;;21.80;58.50;;;;;;4988588;28;20439;-68
2024/02/25 11:58:25;;;;;;;23.07;21.37;;;21.80;58.80;;;;;;4992096;28;21004;-69
2024/02/25 12:00:53;;;;;;;25.30;23.70;;;21.80;58.90;;;;;;4992046;28;20518;-69
2024/02/25 12:03:21;;;;;;;27.23;24.33;;;21.80;59.60;;;;;;4983785;28;20918;-69
2024/02/25 12:05:48;;;;;;;25.50;22.63;;;21.80;60.70;;;;;;4973944;28;20454;-69
2024/02/25 12:08:15;;;;;;;28.93;26.23;;;21.80;62.50;;;;;;4982493;28;20466;-68
2024/02/25 12:10:42;;;;;;;24.77;22.80;;;21.80;62.70;;;;;;4990176;28;20450;-68
2024/02/25 12:13:09;;;;;;;24.37;22.87;;;21.80;63.00;;;;;;4991953;28;20483;-68
2024/02/25 12:15:40;;;;;;;23.03;20.93;;;21.80;63.10;;;;;;4992123;28;20446;-69
2024/02/25 12:18:09;;;;;;;22.37;20.90;;;21.80;62.90;;;;;;4991945;28;20462;-68
2024/02/25 12:20:36;;;;;;;26.37;23.70;;;21.80;62.50;;;;;;4991691;28;20443;-68
2024/02/25 12:23:07;;;;;;;22.57;21.17;;;21.80;62.20;;;;;;4991687;28;20817;-68
2024/02/25 12:25:33;;;;;;;22.87;21.83;;;21.80;61.80;;;;;;4991975;28;20857;-68
2024/02/25 12:28:10;;;;;;;22.60;21.23;;;21.80;61.40;;;;;;4991766;28;20470;-68
2024/02/25 12:30:37;;;;;;;25.00;23.07;;;21.80;61.00;;;;;;4991561;28;20454;-68